Flight Track Log - Related Links

Times and Time Zones

All times are in EDT time to prevent confusion due to time zone crossing. See the UAL654 flight status page for this flight to view local times or setup timezone preferences in your user account.

Time Position Orientation Groundspeed Altitude Reporting Facility
EDT Latitude Longitude Course Direction KTS MPH feet Rate Location/Type
Thu 07:17:21 AM 41.9833 -87.8833 143° Southeast 166 191 1,900  Level Chicago TRACON
Thu 07:18:15 AM 41.9500 -87.8500 143° Southeast 187 215 3,400 1,630 Climbing Chicago TRACON
Thu 07:18:53 AM 41.9150 -87.8158 144° Southeast 198 228 4,400 1,030 Climbing Chicago Center
Thu 07:19:54 AM 41.8383 -87.8044 174° South 287 330 5,100 1,525 Climbing Chicago Center
Thu 07:20:55 AM 41.7558 -87.7953 175° South 297 342 7,500 2,508 Climbing Chicago Center
Thu 07:21:56 AM 41.6711 -87.7772 171° South 306 352 10,200 2,656 Climbing Chicago Center
Thu 07:22:57 AM 41.5792 -87.7583 171° South 332 382 12,900 2,066 Climbing Chicago Center
Thu 07:23:58 AM 41.4797 -87.7386 172° South 354 407 14,400 1,721 Climbing Chicago Center
Thu 07:24:59 AM 41.3692 -87.7250 175° South 395 455 16,400 2,262 Climbing Chicago Center
Thu 07:26:00 AM 41.2553 -87.7261 180° South 405 466 19,000 2,049 Climbing Chicago Center
Thu 07:27:02 AM 41.1408 -87.7189 177° South 410 472 20,600 1,463 Climbing Chicago Center
Thu 07:28:03 AM 41.0192 -87.7011 174° South 433 498 22,000 1,574 Climbing Chicago Center
Thu 07:29:04 AM 40.8972 -87.6828 174° South 441 507 23,800 1,770 Climbing Chicago Center
Thu 07:30:05 AM 40.7469 -87.6625 174° South 452 520 25,600 1,574 Climbing Chicago Center
Thu 07:31:06 AM 40.6203 -87.6464 174° South 457 526 27,000 1,220 Climbing Chicago Center
Thu 07:32:08 AM 40.4911 -87.6286 174° South 467 537 28,100 1,220 Climbing Chicago Center
Thu 07:33:09 AM 40.3586 -87.6078 173° South 478 550 29,500 1,475 Climbing Chicago Center
Thu 07:34:10 AM 40.2331 -87.5533 162° South 482 555 31,100 1,610 Climbing Chicago Center
Thu 07:35:12 AM 40.1197 -87.4803 154° Southeast 467 537 32,800 1,240 Climbing Chicago Center
Thu 07:36:11 AM 40.0014 -87.4075 155° Southeast 466 536 33,600 1,041 Climbing Indianapolis Center
Thu 07:37:13 AM 39.8869 -87.3308 153° Southeast 464 534 34,900 683 Climbing Indianapolis Center
Thu 07:38:14 AM 39.7736 -87.2519 152° Southeast 464 534 35,000 49 Climbing Indianapolis Center
Thu 07:39:15 AM 39.6319 -87.1592 153° Southeast 476 548 35,000  Level Indianapolis Center
Thu 07:40:16 AM 39.5106 -87.0950 158° South 474 545 35,000  Level Indianapolis Center
Thu 07:41:18 AM 39.3903 -87.0297 157° South 472 543 35,000  Level Indianapolis Center
Thu 07:42:19 AM 39.2692 -86.9719 160° South 469 540 35,000  Level Indianapolis Center
Thu 07:43:20 AM 39.1339 -86.9061 159° South 474 545 35,000  Level Indianapolis Center
Thu 07:44:21 AM 39.0086 -86.8461 160° South 476 548 35,000 49 Level Indianapolis Center
Thu 07:45:23 AM 38.8822 -86.7844 159° South 482 555 35,100  Climbing Indianapolis Center
Thu 07:46:24 AM 38.7547 -86.7233 160° South 483 556 35,000 -49 Descending Indianapolis Center
Thu 07:47:26 AM 38.6264 -86.6614 159° South 486 559 35,000  Level Indianapolis Center
Thu 07:48:27 AM 38.4975 -86.5989 159° South 488 562 35,000 -934 Level Indianapolis Center
Thu 07:49:28 AM 38.3711 -86.5397 160° South 480 552 33,100 -976 Descending Indianapolis Center
Thu 07:50:30 AM 38.2439 -86.4803 160° South 480 552 33,000 -512 Descending Indianapolis Center
Thu 07:52:00 AM 38.0697 -86.4181 158° South  Level FlightAware Approximate
Thu 07:53:34 AM 37.8667 -86.3022 158° South 477 549 31,000  Level Indianapolis Center
Thu 07:54:35 AM 37.7319 -86.2406 160° South 473 544 31,000  Level Indianapolis Center
Thu 07:55:37 AM 37.6167 -86.1878 160° South 475 547 31,000 -49 Level Indianapolis Center
Thu 07:56:38 AM 37.4811 -86.1244 160° South 473 544 30,900  Descending Indianapolis Center
Thu 07:57:40 AM 37.3556 -86.0692 161° South 472 543 31,000 49 Climbing Indianapolis Center
Thu 07:58:41 AM 37.2278 -86.0075 159° South 482 555 31,000  Level Indianapolis Center
Thu 07:59:43 AM 37.1003 -85.9500 160° South 480 552 31,000  Level Indianapolis Center
Thu 08:00:44 AM 36.9736 -85.8914 160° South 479 551 31,000  Level Indianapolis Center
Thu 08:01:46 AM 36.8464 -85.8333 160° South 480 552 31,000  Level Indianapolis Center
Thu 08:02:47 AM 36.7083 -85.7706 160° South 472 543 31,000  Level Indianapolis Center
Thu 08:03:49 AM 36.5833 -85.7142 160° South 476 548 31,000  Level Indianapolis Center
Thu 08:04:50 AM 36.4578 -85.6581 160° South 478 550 31,000 244 Level Indianapolis Center
Thu 08:05:52 AM 36.3331 -85.6028 160° South 478 550 31,500 683 Climbing Indianapolis Center
Thu 08:06:53 AM 36.2058 -85.5456 160° South 485 558 32,400 1,317 Climbing Indianapolis Center
Thu 08:07:55 AM 36.0522 -85.4775 160° South 491 565 34,200 1,333 Climbing Indianapolis Center
Thu 08:09:08 AM 35.9006 -85.4128 161° South 505 581 35,400 1,038 Climbing Atlanta Center
Thu 08:10:08 AM 35.7739 -85.3594 161° South 491 565 36,500 800 Climbing Atlanta Center
Thu 08:11:08 AM 35.6492 -85.3039 160° South 486 559 37,000 250 Climbing Atlanta Center
Thu 08:12:08 AM 35.5225 -85.2483 160° South 486 559 37,000  Level Atlanta Center
Thu 08:13:08 AM 35.3978 -85.1928 160° South 486 559 37,000  Level Atlanta Center
Thu 08:14:08 AM 35.2753 -85.1378 160° South 486 559 37,000  Level Atlanta Center
Thu 08:15:08 AM 35.1525 -85.0853 161° South 481 554 37,000 -50 Level Atlanta Center
Thu 08:16:08 AM 35.0300 -85.0306 160° South 481 554 36,900 -950 Descending Atlanta Center
Thu 08:17:08 AM 34.9092 -84.9811 161° South 471 542 35,100 -1,950 Descending Atlanta Center
Thu 08:18:08 AM 34.7844 -84.9239 159° South 471 542 33,000 -1,050 Descending Atlanta Center
Thu 08:19:08 AM 34.6575 -84.8722 161° South 476 548 33,000  Level Atlanta Center
Thu 08:20:08 AM 34.5494 -84.8231 159° South 469 540 33,000 -50 Level Atlanta Center
Thu 08:21:08 AM 34.4267 -84.7717 161° South 464 534 32,900 -50 Descending Atlanta Center
Thu 08:22:08 AM 34.3058 -84.7203 161° South 464 534 32,900 50 Level Atlanta Center
Thu 08:23:08 AM 34.1808 -84.6667 160° South 464 534 33,000 50 Climbing Atlanta Center
Thu 08:24:08 AM 34.0433 -84.6078 160° South 473 544 33,000  Level Atlanta Center
Thu 08:25:08 AM 33.9206 -84.5644 164° South 473 544 33,000  Level Atlanta Center
Thu 08:26:08 AM 33.7975 -84.5089 159° South 468 539 33,000  Level Atlanta Center
Thu 08:27:08 AM 33.6911 -84.4633 160° South 468 539 33,000  Level Atlanta Center
Thu 08:28:08 AM 33.5661 -84.4128 161° South 468 539 33,000  Level Atlanta Center
Thu 08:29:08 AM 33.4431 -84.3600 160° South 463 533 33,000  Level Atlanta Center
Thu 08:30:08 AM 33.3222 -84.3097 161° South 463 533 33,000  Level Atlanta Center
Thu 08:31:08 AM 33.1972 -84.2597 161° South 463 533 33,000  Level Atlanta Center
Thu 08:32:08 AM 33.0761 -84.2100 161° South 463 533 33,000  Level Atlanta Center
Thu 08:33:08 AM 32.9572 -84.1578 160° South 463 533 33,000  Level Atlanta Center
Thu 08:34:08 AM 32.8342 -84.1081 161° South 463 533 33,000  Level Atlanta Center
Thu 08:35:08 AM 32.7108 -84.0586 161° South 463 533 33,000  Level Atlanta Center
Thu 08:36:08 AM 32.5897 -84.0067 160° South 463 533 33,000  Level Atlanta Center
Thu 08:37:08 AM 32.4667 -83.9553 161° South 463 533 33,000  Level Atlanta Center
Thu 08:38:08 AM 32.3436 -83.9061 161° South 463 533 33,000  Level Atlanta Center
Thu 08:39:08 AM 32.2222 -83.8547 160° South 463 533 33,000  Level Atlanta Center
Thu 08:40:08 AM 32.1011 -83.8058 161° South 463 533 33,000  Level Atlanta Center
Thu 08:40:35 AM 32.0444 -83.7847 162° South 473 544 33,000  Level Jacksonville Center
Thu 08:41:35 AM 31.9236 -83.7322 160° South 478 550 33,000 -50 Level Jacksonville Center
Thu 08:42:35 AM 31.7883 -83.6772 161° South 466 536 32,900  Descending Jacksonville Center
Thu 08:43:35 AM 31.6739 -83.6053 152° Southeast 467 537 33,000 50 Climbing Jacksonville Center
Thu 08:44:35 AM 31.5678 -83.5364 151° Southeast 473 544 33,000  Level Jacksonville Center
Thu 08:45:35 AM 31.4450 -83.4528 150° Southeast 473 544 33,000  Level Jacksonville Center
Thu 08:46:35 AM 31.3347 -83.3767 149° Southeast 473 544 33,000  Level Jacksonville Center
Thu 08:47:35 AM 31.2242 -83.3008 150° Southeast 468 539 33,000 -550 Level Jacksonville Center
Thu 08:48:35 AM 31.1139 -83.2225 149° Southeast 463 533 31,900 -1,350 Descending Jacksonville Center
Thu 08:49:35 AM 31.0075 -83.1519 150° Southeast 463 533 30,300 -1,650 Descending Jacksonville Center
Thu 08:50:35 AM 30.9011 -83.0789 149° Southeast 457 526 28,600 -1,650 Descending Jacksonville Center
Thu 08:51:35 AM 30.8011 -83.0086 149° Southeast 439 505 27,000 -850 Descending Jacksonville Center
Thu 08:52:35 AM 30.6925 -82.9433 153° Southeast 433 498 26,900 -50 Descending Jacksonville Center
Thu 08:53:35 AM 30.5922 -82.8708 148° Southeast 433 498 26,900 -950 Level Jacksonville Center
Thu 08:54:35 AM 30.4900 -82.7961 148° Southeast 433 498 25,000 -1,000 Descending Jacksonville Center
Thu 08:55:35 AM 30.3856 -82.7264 150° Southeast 433 498 24,900 -50 Descending Jacksonville Center
Thu 08:56:35 AM 30.2831 -82.6592 150° Southeast 433 498 24,900  Level Jacksonville Center
Thu 08:57:35 AM 30.1806 -82.5922 151° Southeast 433 498 24,900  Level Jacksonville Center
Thu 08:58:35 AM 30.0844 -82.5300 151° Southeast 427 491 24,900  Level Jacksonville Center
Thu 08:59:35 AM 29.9839 -82.4608 149° Southeast 427 491 24,900  Level Jacksonville Center
Thu 09:00:35 AM 29.8731 -82.4158 161° South 422 486 24,900 -450 Level Jacksonville Center
Thu 09:01:35 AM 29.7664 -82.3661 158° South 422 486 24,000 -500 Descending Jacksonville Center
Thu 09:02:35 AM 29.6597 -82.3142 157° South 417 480 23,900 -150 Descending Jacksonville Center
Thu 09:03:35 AM 29.5531 -82.2622 157° South 417 480 23,700 -1,200 Descending Jacksonville Center
Thu 09:04:35 AM 29.4525 -82.2128 157° South 412 474 21,500 -2,050 Descending Jacksonville Center
Thu 09:05:35 AM 29.3522 -82.1611 156° South 407 468 19,600 -1,850 Descending Jacksonville Center
Thu 09:06:35 AM 29.2558 -82.1142 157° South 395 455 17,800 -2,000 Descending Jacksonville Center
Thu 09:07:35 AM 29.1594 -82.0675 157° South 383 441 15,600 -2,100 Descending Jacksonville Center
Thu 09:08:35 AM 29.0694 -82.0231 157° South 371 427 13,600 -1,850 Descending Jacksonville Center
Thu 09:09:35 AM 28.9772 -81.9789 157° South 361 415 11,900 -1,300 Descending Jacksonville Center
Thu 09:10:35 AM 28.8936 -81.9392 157° South 345 397 11,000 -474 Descending Jacksonville Center
Thu 09:11:29 AM 28.8500 -81.8667 124° Southeast 292 336 11,000 -650 Level Orlando TRACON
Thu 09:12:35 AM 28.8000 -81.7833 124° Southeast 291 335 9,700 -1,041 Descending Orlando TRACON
Thu 09:13:30 AM 28.7500 -81.7167 131° Southeast 290 334 8,900 -470 Descending Orlando TRACON
Thu 09:14:30 AM 28.7500 -81.6333 90° East 243 280 8,800 -632 Descending Orlando TRACON
Thu 09:15:24 AM 28.7333 -81.5500 103° East 235 270 7,700 -1,158 Descending Orlando TRACON
Thu 09:16:24 AM 28.7333 -81.4833 90° East 244 281 6,600 -850 Descending Orlando TRACON
Thu 09:17:24 AM 28.7000 -81.4167 120° Southeast 230 265 6,000 -1,050 Descending Orlando TRACON
Thu 09:18:24 AM 28.6500 -81.3833 150° Southeast 234 269 4,500 -1,300 Descending Orlando TRACON
Thu 09:19:24 AM 28.5833 -81.3500 156° South 219 252 3,400 -1,041 Descending Orlando TRACON
Thu 09:20:25 AM 28.5333 -81.3333 164° South 188 216 2,400 -1,087 Descending Orlando TRACON
Thu 09:21:31 AM 28.5000 -81.3167 156° South 153 176 1,100 -1,105 Descending Orlando TRACON
Thu 09:22:19 AM 28.4667 -81.3167 180° South 141 162 300 -1,000 Descending Orlando TRACON

Login

Don't have an account? Register now (free) for customized features, flight alerts, and more!